Time;durP1;ratioP1;P1;durP2;ratioP2;P2;SDS_P1;SDS_P2;PMS_P1;PMS_P2;Temp;Humidity;BMP_temperature;BMP_pressure;BME280_temperature;BME280_humidity;BME280_pressure;Samples;Min_cycle;Max_cycle;Signal;HPM_P1;HPM_P2
2022/05/06 00:01:00;;;;;;;42.70;30.25;;;;;;;;;;4945127;29;21439;-69
2022/05/06 00:03:28;;;;;;;42.30;30.13;;;;;;;;;;4942203;29;20047;-69
2022/05/06 00:05:55;;;;;;;43.03;30.15;;;;;;;;;;4935823;28;20051;-69
2022/05/06 00:08:23;;;;;;;43.50;30.17;;;;;;;;;;4938283;28;20071;-69
2022/05/06 00:10:51;;;;;;;48.42;30.65;;;;;;;;;;4941523;28;20067;-69
2022/05/06 00:13:18;;;;;;;43.63;31.02;;;;;;;;;;4944829;28;20054;-69
2022/05/06 00:15:45;;;;;;;49.53;31.95;;;;;;;;;;4939879;28;20061;-69
2022/05/06 00:18:12;;;;;;;50.30;34.38;;;;;;;;;;4940240;28;20065;-69
2022/05/06 00:20:41;;;;;;;46.45;32.47;;;;;;;;;;4943732;28;20114;-69
2022/05/06 00:23:08;;;;;;;48.63;33.38;;;;;;;;;;4942990;28;20054;-69
2022/05/06 00:25:37;;;;;;;50.90;34.17;;;;;;;;;;4940706;28;20047;-69
2022/05/06 00:28:04;;;;;;;44.67;32.88;;;;;;;;;;4942429;28;20058;-69
2022/05/06 00:30:32;;;;;;;46.88;33.67;;;;;;;;;;4943439;28;20502;-69
2022/05/06 00:33:00;;;;;;;47.67;33.83;;;;;;;;;;4944926;28;20145;-69
2022/05/06 00:35:27;;;;;;;43.22;31.50;;;;;;;;;;4941058;28;20127;-69
2022/05/06 00:37:54;;;;;;;45.55;33.53;;;;;;;;;;4961048;28;20105;-69
2022/05/06 00:40:21;;;;;;;44.33;31.42;;;;;;;;;;4940417;28;20098;-69
2022/05/06 00:42:51;;;;;;;45.00;32.78;;;;;;;;;;4942204;28;20055;-69
2022/05/06 00:45:18;;;;;;;48.15;35.22;;;;;;;;;;4958337;28;20055;-69
2022/05/06 00:47:46;;;;;;;46.30;32.60;;;;;;;;;;4939620;28;20430;-69
2022/05/06 00:50:14;;;;;;;43.78;31.40;;;;;;;;;;4938030;28;20175;-68
2022/05/06 00:52:41;;;;;;;43.15;32.90;;;;;;;;;;4947236;28;20504;-68
2022/05/06 00:55:09;;;;;;;48.38;34.45;;;;;;;;;;4941979;28;20070;-68
2022/05/06 00:57:37;;;;;;;45.30;31.77;;;;;;;;;;4942724;28;20080;-68
2022/05/06 01:00:19;;;;;;;39.97;30.73;;;;;;;;;;4944731;28;20051;-68
2022/05/06 01:02:46;;;;;;;47.40;34.75;;;;;;;;;;4956547;28;20066;-67
2022/05/06 01:05:13;;;;;;;49.47;33.78;;;;;;;;;;4958497;28;20050;-67
2022/05/06 01:07:43;;;;;;;56.15;37.97;;;;;;;;;;4960491;28;20569;-67
2022/05/06 01:10:10;;;;;;;50.53;34.50;;;;;;;;;;4942968;28;20069;-67
2022/05/06 01:12:38;;;;;;;49.15;33.53;;;;;;;;;;4956739;28;20110;-67
2022/05/06 01:15:19;;;;;;;48.42;34.30;;;;;;;;;;4959607;28;20572;-67
2022/05/06 01:17:46;;;;;;;45.45;33.15;;;;;;;;;;4962142;28;20153;-67
2022/05/06 01:20:16;;;;;;;54.25;36.05;;;;;;;;;;4938103;28;20820;-67
2022/05/06 01:22:46;;;;;;;51.13;34.72;;;;;;;;;;4941053;28;20161;-68
2022/05/06 01:25:13;;;;;;;55.15;35.10;;;;;;;;;;4947747;28;20058;-68
2022/05/06 01:27:45;;;;;;;53.67;36.80;;;;;;;;;;4940433;28;20055;-68
2022/05/06 01:30:14;;;;;;;51.28;34.85;;;;;;;;;;4943995;28;20145;-68
2022/05/06 01:32:42;;;;;;;53.60;35.13;;;;;;;;;;4941276;28;20051;-68
2022/05/06 01:35:11;;;;;;;52.78;34.95;;;;;;;;;;4956707;28;20048;-68
2022/05/06 01:37:39;;;;;;;54.35;35.65;;;;;;;;;;4940109;28;20102;-68
2022/05/06 01:40:09;;;;;;;64.03;37.72;;;;;;;;;;4957590;28;20450;-68
2022/05/06 01:42:37;;;;;;;58.40;35.78;;;;;;;;;;4960126;28;20094;-68
2022/05/06 01:45:07;;;;;;;58.85;35.30;;;;;;;;;;4965188;28;20055;-68
2022/05/06 01:47:35;;;;;;;57.00;34.97;;;;;;;;;;4967955;28;20050;-68
2022/05/06 01:50:04;;;;;;;74.50;38.88;;;;;;;;;;4966187;28;20102;-68
2022/05/06 01:52:32;;;;;;;82.95;37.03;;;;;;;;;;4962536;28;20086;-68
2022/05/06 01:54:59;;;;;;;67.32;37.03;;;;;;;;;;4963835;28;20102;-68
2022/05/06 01:57:28;;;;;;;64.20;35.72;;;;;;;;;;4962951;28;20058;-68
2022/05/06 01:59:55;;;;;;;120.38;36.20;;;;;;;;;;4964063;28;20055;-68
2022/05/06 02:02:22;;;;;;;140.48;32.85;;;;;;;;;;4948324;28;20043;-68
2022/05/06 02:07:34;;;;;;;79.75;31.23;;;;;;;;;;4950136;28;20141;-68
2022/05/06 02:10:02;;;;;;;271.30;35.60;;;;;;;;;;4942381;29;20063;-68
2022/05/06 02:12:30;;;;;;;59.67;32.17;;;;;;;;;;4941356;29;20061;-68
2022/05/06 02:14:58;;;;;;;78.30;35.42;;;;;;;;;;4939376;29;20115;-68
2022/05/06 02:17:25;;;;;;;119.40;33.10;;;;;;;;;;4944677;29;20063;-68
2022/05/06 02:19:52;;;;;;;71.32;33.08;;;;;;;;;;4944381;28;20465;-67
2022/05/06 02:22:27;;;;;;;88.47;32.05;;;;;;;;;;4945639;28;20055;-67
2022/05/06 02:25:00;;;;;;;483.75;35.95;;;;;;;;;;4945434;28;20055;-67
2022/05/06 02:27:28;;;;;;;138.63;31.00;;;;;;;;;;4940729;29;20414;-67
2022/05/06 02:35:26;;;;;;;393.58;36.70;;;;;;;;;;4941688;29;20050;-67
2022/05/06 02:37:53;;;;;;;182.48;29.98;;;;;;;;;;4947215;29;20407;-67
2022/05/06 02:40:20;;;;;;;123.78;29.70;;;;;;;;;;4944580;29;20055;-67
2022/05/06 02:42:47;;;;;;;97.38;24.70;;;;;;;;;;4943204;29;20391;-67
2022/05/06 02:45:16;;;;;;;92.38;24.23;;;;;;;;;;4943600;29;20058;-67
2022/05/06 02:47:43;;;;;;;113.70;24.83;;;;;;;;;;4943821;29;20631;-67
2022/05/06 02:50:11;;;;;;;280.38;24.50;;;;;;;;;;4945570;29;20481;-67
2022/05/06 02:52:38;;;;;;;81.32;19.40;;;;;;;;;;4941883;29;20153;-67
2022/05/06 02:55:06;;;;;;;127.22;19.45;;;;;;;;;;4944688;28;20577;-67
2022/05/06 02:57:33;;;;;;;139.18;17.77;;;;;;;;;;4940707;29;20052;-67
2022/05/06 03:00:01;;;;;;;138.90;18.02;;;;;;;;;;4940757;28;20426;-67
2022/05/06 03:02:29;;;;;;;154.48;19.05;;;;;;;;;;4940913;28;20063;-67
2022/05/06 03:04:57;;;;;;;156.85;16.20;;;;;;;;;;4942765;28;20055;-67
2022/05/06 03:07:24;;;;;;;94.25;14.30;;;;;;;;;;4942806;28;20062;-67
2022/05/06 03:09:52;;;;;;;77.18;13.68;;;;;;;;;;4938844;28;20067;-67
2022/05/06 03:12:22;;;;;;;101.47;15.20;;;;;;;;;;4937518;28;20048;-67
2022/05/06 03:14:50;;;;;;;50.17;12.80;;;;;;;;;;4942461;28;20122;-67
2022/05/06 03:17:17;;;;;;;109.85;14.02;;;;;;;;;;4937327;28;20066;-67
2022/05/06 03:19:45;;;;;;;128.02;14.75;;;;;;;;;;4947785;28;20119;-67
2022/05/06 03:22:13;;;;;;;165.55;19.45;;;;;;;;;;4941249;28;21146;-67
2022/05/06 03:24:40;;;;;;;32.67;13.05;;;;;;;;;;4943047;28;20135;-67
2022/05/06 03:27:59;;;;;;;70.38;13.90;;;;;;;;;;4944223;28;20055;-68
2022/05/06 03:29:56;;;;;;;114.15;13.75;;;;;;;;;;4939140;28;20059;-68
2022/05/06 03:32:23;;;;;;;74.25;14.02;;;;;;;;;;4936912;28;20058;-68
2022/05/06 03:34:52;;;;;;;136.32;15.55;;;;;;;;;;4940833;28;20482;-68
2022/05/06 03:37:19;;;;;;;61.65;13.88;;;;;;;;;;4941261;28;20110;-68
2022/05/06 03:39:47;;;;;;;75.18;13.52;;;;;;;;;;4941424;28;20439;-68
2022/05/06 03:42:14;;;;;;;57.75;12.52;;;;;;;;;;4943828;28;20105;-68
2022/05/06 03:44:41;;;;;;;78.57;13.13;;;;;;;;;;4938969;28;20612;-68
2022/05/06 03:47:09;;;;;;;106.57;15.20;;;;;;;;;;4941505;28;20051;-68
2022/05/06 03:49:36;;;;;;;67.13;14.15;;;;;;;;;;4941494;29;20055;-68
2022/05/06 03:52:04;;;;;;;73.88;12.95;;;;;;;;;;4941477;29;20058;-68
2022/05/06 03:54:33;;;;;;;158.77;15.38;;;;;;;;;;4944537;29;20078;-68
2022/05/06 03:57:00;;;;;;;75.32;13.55;;;;;;;;;;4935450;29;20055;-68
2022/05/06 03:59:28;;;;;;;64.43;12.02;;;;;;;;;;4938214;29;20055;-68
2022/05/06 04:01:55;;;;;;;83.07;14.82;;;;;;;;;;4940865;28;20153;-68
2022/05/06 04:04:26;;;;;;;96.65;11.23;;;;;;;;;;4942730;29;20062;-68
2022/05/06 04:06:53;;;;;;;130.90;9.98;;;;;;;;;;4940741;28;20044;-68
2022/05/06 04:09:22;;;;;;;105.13;9.50;;;;;;;;;;4944946;28;20050;-68
2022/05/06 04:11:49;;;;;;;99.60;10.25;;;;;;;;;;4963924;28;20054;-68
2022/05/06 04:14:16;;;;;;;59.60;9.27;;;;;;;;;;4945457;28;20066;-68
2022/05/06 04:16:43;;;;;;;69.40;9.20;;;;;;;;;;4943128;28;20058;-68
2022/05/06 04:19:11;;;;;;;56.08;10.38;;;;;;;;;;4940825;28;20080;-68
2022/05/06 04:24:24;;;;;;;74.97;9.27;;;;;;;;;;4939891;28;20061;-68
2022/05/06 04:26:51;;;;;;;73.10;9.88;;;;;;;;;;4963431;28;20109;-67
2022/05/06 04:29:18;;;;;;;96.10;10.05;;;;;;;;;;4942028;28;20055;-67
2022/05/06 04:31:45;;;;;;;63.45;9.30;;;;;;;;;;4960709;28;20407;-67
2022/05/06 04:34:12;;;;;;;36.15;9.85;;;;;;;;;;4941249;28;20070;-67
2022/05/06 04:36:40;;;;;;;51.95;10.82;;;;;;;;;;4941303;28;20050;-67
2022/05/06 04:39:07;;;;;;;40.30;10.20;;;;;;;;;;4960309;28;20054;-67
2022/05/06 04:41:36;;;;;;;86.72;10.70;;;;;;;;;;4942460;28;20072;-67
2022/05/06 04:44:03;;;;;;;67.07;10.23;;;;;;;;;;4941720;28;20061;-67
2022/05/06 04:46:30;;;;;;;46.42;9.65;;;;;;;;;;4956364;28;20064;-67
2022/05/06 04:48:58;;;;;;;52.65;10.32;;;;;;;;;;4961292;28;20533;-67
2022/05/06 04:51:25;;;;;;;30.05;8.90;;;;;;;;;;4957078;28;20047;-67
2022/05/06 04:53:55;;;;;;;28.65;9.50;;;;;;;;;;4961575;28;20058;-67
2022/05/06 04:56:22;;;;;;;42.35;9.60;;;;;;;;;;4937403;28;20055;-67
2022/05/06 04:58:51;;;;;;;68.93;9.27;;;;;;;;;;4942231;28;20087;-67
2022/05/06 05:01:18;;;;;;;56.70;10.27;;;;;;;;;;4940062;28;20136;-67
2022/05/06 05:03:45;;;;;;;56.28;10.40;;;;;;;;;;4941059;28;20051;-67
2022/05/06 05:06:13;;;;;;;32.10;9.68;;;;;;;;;;4940831;28;20058;-67
2022/05/06 05:08:40;;;;;;;51.00;9.93;;;;;;;;;;4933992;28;20074;-67
2022/05/06 05:11:08;;;;;;;66.68;11.00;;;;;;;;;;4944282;28;20062;-67
2022/05/06 05:13:38;;;;;;;72.50;10.88;;;;;;;;;;4959790;28;20050;-67
2022/05/06 05:16:07;;;;;;;49.40;11.13;;;;;;;;;;4943453;28;20494;-67
2022/05/06 05:18:34;;;;;;;129.77;11.70;;;;;;;;;;4957312;28;20441;-67
2022/05/06 05:21:01;;;;;;;58.35;10.82;;;;;;;;;;4942325;28;20062;-67
2022/05/06 05:23:31;;;;;;;29.58;10.65;;;;;;;;;;4940559;28;20149;-67
2022/05/06 05:25:58;;;;;;;67.95;12.10;;;;;;;;;;4941534;28;20082;-67
2022/05/06 05:28:26;;;;;;;30.73;11.13;;;;;;;;;;4937751;28;20043;-67
2022/05/06 05:30:53;;;;;;;56.38;12.60;;;;;;;;;;4941772;28;20524;-67
2022/05/06 05:33:21;;;;;;;44.70;13.07;;;;;;;;;;4962418;28;20109;-67
2022/05/06 05:35:49;;;;;;;36.30;13.02;;;;;;;;;;4946831;28;20054;-67
2022/05/06 05:38:16;;;;;;;34.55;13.60;;;;;;;;;;4964031;28;20042;-67
2022/05/06 05:40:43;;;;;;;40.28;15.65;;;;;;;;;;4961702;28;20105;-67
2022/05/06 05:48:19;;;;;;;41.28;15.77;;;;;;;;;;4940560;28;20054;-67
2022/05/06 05:48:44;;;;;;;36.95;16.33;;;;;;;;;;4960256;28;20098;-67
2022/05/06 05:51:11;;;;;;;31.13;15.45;;;;;;;;;;4939152;28;20116;-67
2022/05/06 05:53:38;;;;;;;30.40;16.17;;;;;;;;;;4947298;28;20553;-67
2022/05/06 05:56:06;;;;;;;28.80;16.08;;;;;;;;;;4944673;28;20109;-67
2022/05/06 05:58:34;;;;;;;30.60;16.65;;;;;;;;;;4957027;28;20047;-67
2022/05/06 06:01:01;;;;;;;23.20;14.95;;;;;;;;;;4940325;28;20532;-67
2022/05/06 06:03:29;;;;;;;27.63;17.27;;;;;;;;;;4945166;28;20058;-67
2022/05/06 06:05:57;;;;;;;25.02;17.20;;;;;;;;;;4947678;28;20154;-67
2022/05/06 06:08:24;;;;;;;27.92;17.70;;;;;;;;;;4948286;28;20055;-67
2022/05/06 06:10:52;;;;;;;20.83;13.45;;;;;;;;;;4944195;28;20074;-67
2022/05/06 06:13:19;;;;;;;20.75;14.23;;;;;;;;;;4943596;28;20054;-67
2022/05/06 06:15:46;;;;;;;20.88;13.65;;;;;;;;;;4943489;28;20055;-67
2022/05/06 06:18:15;;;;;;;21.75;14.32;;;;;;;;;;4938541;28;20082;-67
2022/05/06 06:20:42;;;;;;;22.58;14.90;;;;;;;;;;4963787;28;20058;-67
2022/05/06 06:23:11;;;;;;;22.90;13.25;;;;;;;;;;4955559;28;20138;-67
2022/05/06 06:25:40;;;;;;;22.40;14.40;;;;;;;;;;4957924;28;20581;-67
2022/05/06 06:28:07;;;;;;;22.30;15.05;;;;;;;;;;4959156;28;20047;-68
2022/05/06 06:30:34;;;;;;;19.77;14.10;;;;;;;;;;4939899;28;20453;-67
2022/05/06 06:33:01;;;;;;;20.38;13.38;;;;;;;;;;4962232;28;20390;-67
2022/05/06 06:35:29;;;;;;;19.67;13.93;;;;;;;;;;4942298;28;20059;-67
2022/05/06 06:37:56;;;;;;;23.48;14.23;;;;;;;;;;4940561;28;20046;-67
2022/05/06 06:40:24;;;;;;;21.08;12.88;;;;;;;;;;4945534;28;20561;-67
2022/05/06 06:42:51;;;;;;;20.35;14.15;;;;;;;;;;4947307;28;20124;-67
2022/05/06 06:45:19;;;;;;;20.95;13.10;;;;;;;;;;4942706;28;20502;-67
2022/05/06 06:47:46;;;;;;;14.35;10.45;;;;;;;;;;4943022;28;20051;-67
2022/05/06 06:50:13;;;;;;;15.07;10.80;;;;;;;;;;4958311;28;20590;-67
2022/05/06 06:52:40;;;;;;;18.23;11.18;;;;;;;;;;4947509;28;20051;-67
2022/05/06 06:55:08;;;;;;;15.80;10.63;;;;;;;;;;4960061;28;20058;-68
2022/05/06 06:57:36;;;;;;;10.85;8.38;;;;;;;;;;4944868;28;20047;-67
2022/05/06 07:00:05;;;;;;;10.90;8.18;;;;;;;;;;4940647;28;20162;-69
2022/05/06 07:02:33;;;;;;;10.00;7.55;;;;;;;;;;4939063;28;20054;-69
2022/05/06 07:05:00;;;;;;;7.47;5.70;;;;;;;;;;4937631;28;20122;-69
2022/05/06 07:13:21;;;;;;;5.30;4.80;;;;;;;;;;4879926;29;20048;-69
2022/05/06 07:15:48;;;;;;;5.25;4.75;;;;;;;;;;4909352;28;20066;-69
2022/05/06 07:18:16;;;;;;;5.18;4.68;;;;;;;;;;4942807;28;20047;-69
2022/05/06 07:20:43;;;;;;;6.68;5.13;;;;;;;;;;4966056;28;20059;-69
2022/05/06 07:23:10;;;;;;;5.80;5.30;;;;;;;;;;4941149;28;20047;-69
2022/05/06 07:25:37;;;;;;;6.45;5.85;;;;;;;;;;4960999;28;20046;-69
2022/05/06 07:28:06;;;;;;;6.78;5.72;;;;;;;;;;4942564;28;20113;-69
2022/05/06 07:30:34;;;;;;;6.78;6.18;;;;;;;;;;4937423;28;20607;-69
2022/05/06 07:33:01;;;;;;;7.03;6.35;;;;;;;;;;4941583;28;20050;-69
2022/05/06 07:35:29;;;;;;;7.53;6.35;;;;;;;;;;4965019;28;20062;-69
2022/05/06 07:37:56;;;;;;;8.48;6.70;;;;;;;;;;4945143;28;20121;-69
2022/05/06 07:40:23;;;;;;;6.93;6.22;;;;;;;;;;4957446;28;20506;-69
2022/05/06 07:42:51;;;;;;;7.13;6.50;;;;;;;;;;4944358;28;20055;-69
2022/05/06 07:45:19;;;;;;;7.45;6.45;;;;;;;;;;4961535;28;20133;-69
2022/05/06 07:47:47;;;;;;;7.95;6.50;;;;;;;;;;4959160;28;20059;-69
2022/05/06 07:50:14;;;;;;;7.45;6.72;;;;;;;;;;4956372;28;20522;-69
2022/05/06 07:52:42;;;;;;;7.63;6.80;;;;;;;;;;4944385;28;20054;-69
2022/05/06 07:55:10;;;;;;;7.03;6.35;;;;;;;;;;4958772;28;20054;-69
2022/05/06 07:57:37;;;;;;;7.32;6.63;;;;;;;;;;4943983;28;20612;-69
2022/05/06 08:00:05;;;;;;;8.23;7.35;;;;;;;;;;4954687;28;20522;-69
2022/05/06 08:05:17;;;;;;;8.00;6.43;;;;;;;;;;4927605;28;20053;-69
2022/05/06 08:07:45;;;;;;;7.05;6.35;;;;;;;;;;4959675;28;20194;-69
2022/05/06 08:10:12;;;;;;;7.15;6.45;;;;;;;;;;4943784;28;20127;-69
2022/05/06 08:12:39;;;;;;;7.30;5.85;;;;;;;;;;4946158;28;20395;-69
2022/05/06 08:15:07;;;;;;;6.82;6.03;;;;;;;;;;4942391;28;20125;-69
2022/05/06 08:17:34;;;;;;;7.57;5.53;;;;;;;;;;4944403;28;20062;-69
2022/05/06 08:20:01;;;;;;;5.82;5.10;;;;;;;;;;4947915;28;20059;-69
2022/05/06 08:22:30;;;;;;;6.70;5.95;;;;;;;;;;4965618;28;20767;-69
2022/05/06 08:24:57;;;;;;;6.82;5.68;;;;;;;;;;4965030;28;20055;-69
2022/05/06 08:27:24;;;;;;;5.95;5.30;;;;;;;;;;4949337;28;20067;-69
2022/05/06 08:29:52;;;;;;;6.00;5.40;;;;;;;;;;4940317;28;20054;-69
2022/05/06 08:32:19;;;;;;;5.15;4.65;;;;;;;;;;4961236;28;20070;-69
2022/05/06 08:34:47;;;;;;;5.90;4.72;;;;;;;;;;4939325;28;20055;-69
2022/05/06 08:37:14;;;;;;;5.15;4.65;;;;;;;;;;4942207;28;20066;-69
2022/05/06 08:39:43;;;;;;;5.00;4.50;;;;;;;;;;4957814;28;20109;-69
2022/05/06 08:42:11;;;;;;;4.80;4.40;;;;;;;;;;4959298;28;20054;-69
2022/05/06 08:52:53;;;;;;;4.00;3.60;;;;;;;;;;4961381;28;20081;-69
2022/05/06 08:55:22;;;;;;;5.53;3.58;;;;;;;;;;4958323;28;20127;-69
2022/05/06 08:57:50;;;;;;;8.32;3.35;;;;;;;;;;4960168;28;20058;-69
2022/05/06 09:00:17;;;;;;;3.90;3.20;;;;;;;;;;4957277;28;20051;-69
2022/05/06 09:02:44;;;;;;;4.18;3.03;;;;;;;;;;4959322;28;20534;-69
2022/05/06 09:05:18;;;;;;;5.57;2.95;;;;;;;;;;4957298;28;20055;-69
2022/05/06 09:07:55;;;;;;;3.30;2.80;;;;;;;;;;4956057;28;20047;-69
2022/05/06 09:10:24;;;;;;;2.67;2.42;;;;;;;;;;4939939;28;20059;-69
2022/05/06 09:12:55;;;;;;;5.00;2.60;;;;;;;;;;4939376;28;20078;-69
2022/05/06 09:18:08;;;;;;;3.85;2.70;;;;;;;;;;4937668;28;20117;-69
2022/05/06 09:20:36;;;;;;;3.28;2.97;;;;;;;;;;4938111;28;20138;-69
2022/05/06 09:23:20;;;;;;;3.65;2.90;;;;;;;;;;4939558;28;20056;-69
2022/05/06 09:25:50;;;;;;;4.68;3.75;;;;;;;;;;4938565;28;20044;-69
2022/05/06 09:28:24;;;;;;;4.82;3.50;;;;;;;;;;4941837;28;20055;-69
2022/05/06 09:31:02;;;;;;;4.82;3.45;;;;;;;;;;4939577;28;20062;-69
2022/05/06 09:33:29;;;;;;;6.65;3.45;;;;;;;;;;4939389;28;20051;-69
2022/05/06 09:35:57;;;;;;;4.72;3.20;;;;;;;;;;4935883;28;20751;-69
2022/05/06 09:38:29;;;;;;;6.75;3.63;;;;;;;;;;4935122;28;20143;-69
2022/05/06 09:40:59;;;;;;;5.53;3.45;;;;;;;;;;4937723;28;20054;-69
2022/05/06 09:43:27;;;;;;;6.40;4.15;;;;;;;;;;4941689;28;20138;-69
2022/05/06 09:45:54;;;;;;;4.93;3.97;;;;;;;;;;4947211;28;20131;-69
2022/05/06 09:48:22;;;;;;;5.32;3.72;;;;;;;;;;4940105;28;20058;-69
2022/05/06 09:50:50;;;;;;;5.13;3.80;;;;;;;;;;4941298;28;20518;-69
2022/05/06 09:53:18;;;;;;;7.72;4.50;;;;;;;;;;4939384;28;20051;-69
2022/05/06 09:55:45;;;;;;;6.10;4.78;;;;;;;;;;4935899;28;20055;-69
2022/05/06 09:58:15;;;;;;;6.13;4.60;;;;;;;;;;4939505;28;20134;-69
2022/05/06 10:00:42;;;;;;;5.78;3.97;;;;;;;;;;4941971;28;20090;-69
2022/05/06 10:03:10;;;;;;;7.38;4.45;;;;;;;;;;4944497;28;20047;-69
2022/05/06 10:05:38;;;;;;;7.93;4.80;;;;;;;;;;4939250;28;20119;-69
2022/05/06 10:08:07;;;;;;;7.50;5.22;;;;;;;;;;4940860;28;20062;-69
2022/05/06 10:10:38;;;;;;;8.38;5.05;;;;;;;;;;4944919;29;20058;-69
2022/05/06 10:13:08;;;;;;;7.60;5.32;;;;;;;;;;4945462;28;20059;-69
2022/05/06 10:15:37;;;;;;;5.82;4.70;;;;;;;;;;4942685;29;20486;-69
2022/05/06 10:18:07;;;;;;;7.60;4.75;;;;;;;;;;4946181;28;20055;-69
2022/05/06 10:20:59;;;;;;;5.78;4.03;;;;;;;;;;4944532;29;20061;-69
2022/05/06 10:23:41;;;;;;;7.03;4.18;;;;;;;;;;4948305;29;20106;-69
2022/05/06 10:26:08;;;;;;;4.82;3.97;;;;;;;;;;4942958;28;20055;-69
2022/05/06 10:34:32;;;;;;;5.35;3.90;;;;;;;;;;4942868;28;20146;-69
2022/05/06 10:37:02;;;;;;;6.18;4.15;;;;;;;;;;4949341;28;20576;-69
2022/05/06 10:39:30;;;;;;;5.18;3.33;;;;;;;;;;4942558;28;20087;-69
2022/05/06 10:42:01;;;;;;;5.72;3.50;;;;;;;;;;4937958;28;20051;-69
2022/05/06 10:44:38;;;;;;;6.32;4.07;;;;;;;;;;4940222;28;20064;-69
2022/05/06 10:47:26;;;;;;;5.50;4.10;;;;;;;;;;4935291;28;20143;-69
2022/05/06 10:49:55;;;;;;;5.55;3.80;;;;;;;;;;4943013;28;20061;-69
2022/05/06 10:52:37;;;;;;;7.20;3.40;;;;;;;;;;4941314;29;20056;-69
2022/05/06 10:55:04;;;;;;;7.13;3.80;;;;;;;;;;4947290;28;20047;-69
2022/05/06 10:57:32;;;;;;;4.65;3.55;;;;;;;;;;4936759;28;20136;-69
2022/05/06 11:00:00;;;;;;;4.82;3.25;;;;;;;;;;4939081;29;20061;-69
2022/05/06 11:02:28;;;;;;;4.35;3.13;;;;;;;;;;4941293;28;20057;-69
2022/05/06 11:04:57;;;;;;;8.77;3.40;;;;;;;;;;4940913;29;20102;-69
2022/05/06 11:07:28;;;;;;;5.00;2.95;;;;;;;;;;4942073;28;20067;-70
2022/05/06 11:09:55;;;;;;;4.97;3.20;;;;;;;;;;4957227;28;20063;-70
2022/05/06 11:12:33;;;;;;;9.27;3.97;;;;;;;;;;4961367;28;20058;-70
2022/05/06 11:15:01;;;;;;;5.53;4.18;;;;;;;;;;4960497;28;20573;-70
2022/05/06 11:17:28;;;;;;;7.18;4.00;;;;;;;;;;4961533;28;20130;-70
2022/05/06 11:19:57;;;;;;;7.80;4.82;;;;;;;;;;4961256;28;20109;-70
2022/05/06 11:22:25;;;;;;;6.35;4.43;;;;;;;;;;4964650;28;20061;-70
2022/05/06 11:24:56;;;;;;;7.28;4.78;;;;;;;;;;4957693;28;20066;-70
2022/05/06 11:27:24;;;;;;;9.00;5.35;;;;;;;;;;4960028;28;20458;-70
2022/05/06 11:29:52;;;;;;;9.40;5.80;;;;;;;;;;4956657;28;20051;-70
2022/05/06 11:32:20;;;;;;;7.07;5.43;;;;;;;;;;4955167;28;20051;-70
2022/05/06 11:34:49;;;;;;;7.47;5.28;;;;;;;;;;4953388;28;20107;-70
2022/05/06 11:37:24;;;;;;;7.82;5.53;;;;;;;;;;4951409;28;20386;-70
2022/05/06 11:39:51;;;;;;;8.30;6.35;;;;;;;;;;4941706;28;20055;-70
2022/05/06 11:42:22;;;;;;;11.02;6.78;;;;;;;;;;4937208;28;20047;-70
2022/05/06 11:47:43;;;;;;;10.25;6.70;;;;;;;;;;4949797;28;20126;-70
2022/05/06 11:50:11;;;;;;;10.52;6.72;;;;;;;;;;4930383;28;20122;-70
2022/05/06 11:52:40;;;;;;;10.15;6.88;;;;;;;;;;4953472;28;20051;-70
2022/05/06 11:55:08;;;;;;;10.57;6.55;;;;;;;;;;4952399;28;20046;-70
2022/05/06 11:57:36;;;;;;;10.98;6.47;;;;;;;;;;4951424;28;20125;-70
2022/05/06 12:00:04;;;;;;;10.07;6.78;;;;;;;;;;4936999;28;20060;-70
2022/05/06 12:02:31;;;;;;;8.98;5.22;;;;;;;;;;4958123;28;20058;-70
2022/05/06 12:04:58;;;;;;;9.32;6.15;;;;;;;;;;4934754;28;20157;-70
2022/05/06 12:07:40;;;;;;;9.88;6.57;;;;;;;;;;4936996;28;20106;-70
2022/05/06 12:10:10;;;;;;;14.38;7.25;;;;;;;;;;4951004;28;20059;-70
2022/05/06 12:12:52;;;;;;;10.73;6.82;;;;;;;;;;4937887;28;20089;-70
2022/05/06 12:15:19;;;;;;;8.95;6.57;;;;;;;;;;4952443;28;20051;-70
2022/05/06 12:17:47;;;;;;;10.32;6.95;;;;;;;;;;4953172;28;20051;-70
2022/05/06 12:20:33;;;;;;;9.23;6.72;;;;;;;;;;4952576;28;20106;-68
2022/05/06 12:23:01;;;;;;;7.60;6.68;;;;;;;;;;4951445;28;20050;-68
2022/05/06 12:25:29;;;;;;;9.07;6.97;;;;;;;;;;4953919;28;20059;-68
2022/05/06 12:28:07;;;;;;;9.05;6.97;;;;;;;;;;4957728;28;20058;-68
2022/05/06 12:30:35;;;;;;;13.68;7.10;;;;;;;;;;4959998;28;20054;-68
2022/05/06 12:33:02;;;;;;;10.13;7.93;;;;;;;;;;4957683;28;20058;-68
2022/05/06 12:35:30;;;;;;;8.57;6.85;;;;;;;;;;4965573;28;20046;-68
2022/05/06 12:37:58;;;;;;;9.50;6.72;;;;;;;;;;4956062;28;20593;-68
2022/05/06 12:40:30;;;;;;;10.43;7.47;;;;;;;;;;4939080;28;20129;-68
2022/05/06 12:43:04;;;;;;;14.95;6.80;;;;;;;;;;4963119;28;20101;-68
2022/05/06 12:45:32;;;;;;;13.32;6.20;;;;;;;;;;4965182;28;20054;-68
2022/05/06 12:50:44;;;;;;;11.23;6.72;;;;;;;;;;4955967;28;20166;-71
2022/05/06 12:53:11;;;;;;;8.45;5.88;;;;;;;;;;4957914;28;20286;-69
2022/05/06 12:55:42;;;;;;;9.68;6.15;;;;;;;;;;4959618;28;20137;-69
2022/05/06 12:58:10;;;;;;;12.43;6.35;;;;;;;;;;4960490;28;20054;-69
2022/05/06 13:00:39;;;;;;;8.38;6.18;;;;;;;;;;4954863;28;20082;-69
2022/05/06 13:03:06;;;;;;;8.40;5.70;;;;;;;;;;4939654;28;20059;-69
2022/05/06 13:05:35;;;;;;;8.30;6.50;;;;;;;;;;4951349;28;20079;-69
2022/05/06 13:08:06;;;;;;;9.68;6.25;;;;;;;;;;4954178;28;20051;-69
2022/05/06 13:10:34;;;;;;;8.98;6.68;;;;;;;;;;4942288;28;20161;-69
2022/05/06 13:13:03;;;;;;;8.88;6.22;;;;;;;;;;4958931;28;20062;-69
2022/05/06 13:15:30;;;;;;;10.73;6.40;;;;;;;;;;4959456;28;20133;-69
2022/05/06 13:17:57;;;;;;;8.10;6.38;;;;;;;;;;4957462;28;20062;-69
2022/05/06 13:20:25;;;;;;;9.43;6.30;;;;;;;;;;4961948;28;20415;-69
2022/05/06 13:22:52;;;;;;;12.05;8.05;;;;;;;;;;4960318;28;20234;-69
2022/05/06 13:25:19;;;;;;;10.32;5.90;;;;;;;;;;4957259;28;20058;-69
2022/05/06 13:27:46;;;;;;;9.27;6.38;;;;;;;;;;4940939;28;20058;-69
2022/05/06 13:30:15;;;;;;;10.90;6.55;;;;;;;;;;4957782;28;20066;-69
2022/05/06 13:32:42;;;;;;;9.27;6.53;;;;;;;;;;4940358;28;20086;-69
2022/05/06 13:35:10;;;;;;;11.02;6.30;;;;;;;;;;4942548;28;20109;-69
2022/05/06 13:37:37;;;;;;;10.20;6.60;;;;;;;;;;4938801;28;20070;-69
2022/05/06 13:40:05;;;;;;;8.48;5.85;;;;;;;;;;4958726;28;20418;-69
2022/05/06 13:42:32;;;;;;;7.82;6.22;;;;;;;;;;4959965;28;20078;-69
2022/05/06 13:44:59;;;;;;;11.52;6.30;;;;;;;;;;4964706;28;20351;-69
2022/05/06 13:47:28;;;;;;;7.75;5.93;;;;;;;;;;4961651;28;20059;-69
2022/05/06 13:49:55;;;;;;;9.73;6.65;;;;;;;;;;4958344;28;20054;-69
2022/05/06 13:52:22;;;;;;;9.32;6.90;;;;;;;;;;4962450;28;20065;-69
2022/05/06 13:54:50;;;;;;;10.35;6.40;;;;;;;;;;4963630;28;20043;-70
2022/05/06 14:00:02;;;;;;;9.73;5.65;;;;;;;;;;4961279;28;20053;-69
2022/05/06 14:02:31;;;;;;;8.95;5.65;;;;;;;;;;4963549;28;20039;-69
2022/05/06 14:04:58;;;;;;;8.40;5.97;;;;;;;;;;4961541;28;20053;-69
2022/05/06 14:07:25;;;;;;;7.68;6.47;;;;;;;;;;4959812;28;20635;-69
2022/05/06 14:09:52;;;;;;;9.15;6.45;;;;;;;;;;4943073;28;20109;-69
2022/05/06 14:12:20;;;;;;;7.88;6.10;;;;;;;;;;4942333;28;20054;-69
2022/05/06 14:14:47;;;;;;;8.40;5.40;;;;;;;;;;4961494;28;20417;-69
2022/05/06 14:17:14;;;;;;;7.90;6.28;;;;;;;;;;4958223;28;20043;-69
2022/05/06 14:19:43;;;;;;;9.10;6.20;;;;;;;;;;4947540;28;20046;-69
2022/05/06 14:22:10;;;;;;;8.02;5.82;;;;;;;;;;4963337;28;20043;-69
2022/05/06 14:24:37;;;;;;;11.15;5.93;;;;;;;;;;4962035;28;20055;-69
2022/05/06 14:27:05;;;;;;;9.05;6.90;;;;;;;;;;4958900;28;20059;-70
2022/05/06 14:29:34;;;;;;;14.45;7.50;;;;;;;;;;4959253;28;20149;-70
2022/05/06 14:32:01;;;;;;;10.13;7.50;;;;;;;;;;4960836;28;20049;-69
2022/05/06 14:34:28;;;;;;;9.07;7.65;;;;;;;;;;4958654;28;20557;-69
2022/05/06 14:36:57;;;;;;;11.75;7.53;;;;;;;;;;4943374;28;20405;-69
2022/05/06 14:39:24;;;;;;;12.93;8.63;;;;;;;;;;4962493;28;20039;-69
2022/05/06 14:41:51;;;;;;;10.65;8.05;;;;;;;;;;4961978;28;20100;-69
2022/05/06 14:44:19;;;;;;;11.32;7.35;;;;;;;;;;4959990;28;20058;-69
2022/05/06 14:46:46;;;;;;;13.48;8.43;;;;;;;;;;4941428;28;20051;-69
2022/05/06 14:49:13;;;;;;;11.15;9.07;;;;;;;;;;4960195;28;20051;-69
2022/05/06 14:51:40;;;;;;;12.82;8.93;;;;;;;;;;4964713;28;20050;-69
2022/05/06 14:54:09;;;;;;;12.15;10.13;;;;;;;;;;4945688;28;20062;-69
2022/05/06 14:56:36;;;;;;;12.45;10.00;;;;;;;;;;4959896;28;20055;-69
2022/05/06 14:59:03;;;;;;;13.40;9.07;;;;;;;;;;4953482;28;20050;-69
2022/05/06 15:01:32;;;;;;;12.40;9.43;;;;;;;;;;4931604;28;20418;-69
2022/05/06 15:03:59;;;;;;;12.15;9.13;;;;;;;;;;4953302;28;20058;-69
2022/05/06 15:06:26;;;;;;;14.40;8.75;;;;;;;;;;4955686;28;20058;-69
2022/05/06 15:08:53;;;;;;;10.38;8.35;;;;;;;;;;4955955;28;20888;-69
2022/05/06 15:11:22;;;;;;;14.88;8.38;;;;;;;;;;4935060;28;20062;-70
2022/05/06 15:13:49;;;;;;;10.73;6.93;;;;;;;;;;4953545;28;20081;-70
2022/05/06 15:16:16;;;;;;;15.90;7.72;;;;;;;;;;4933211;28;20090;-70
2022/05/06 15:21:37;;;;;;;10.35;6.93;;;;;;;;;;4895844;28;20865;-70
2022/05/06 15:24:04;;;;;;;9.05;6.95;;;;;;;;;;4959803;28;20051;-70
2022/05/06 15:26:33;;;;;;;9.55;6.28;;;;;;;;;;4964790;28;20058;-70